sensor_id;sensor_type;location;lat;lon;timestamp;P1;P2;P0
55304;PMS7003;65692;51.378;19.824;2023-02-01T00:01:12;14.00;10.67;8.00
55304;PMS7003;65692;51.378;19.824;2023-02-01T00:03:39;14.67;11.00;9.00
55304;PMS7003;65692;51.378;19.824;2023-02-01T00:06:05;4.50;4.50;4.25
55304;PMS7003;65692;51.378;19.824;2023-02-01T00:08:32;2.50;2.00;1.00
55304;PMS7003;65692;51.378;19.824;2023-02-01T00:11:08;1.00;1.00;1.00
55304;PMS7003;65692;51.378;19.824;2023-02-01T00:13:36;5.00;1.00;0.25
55304;PMS7003;65692;51.378;19.824;2023-02-01T00:16:05;1.75;1.00;1.00
55304;PMS7003;65692;51.378;19.824;2023-02-01T00:18:32;1.00;1.00;1.00
55304;PMS7003;65692;51.378;19.824;2023-02-01T00:20:58;1.00;1.00;1.00
55304;PMS7003;65692;51.378;19.824;2023-02-01T00:23:25;0.00;0.00;0.00
55304;PMS7003;65692;51.378;19.824;2023-02-01T00:25:51;2.00;2.00;2.00
55304;PMS7003;65692;51.378;19.824;2023-02-01T00:28:18;1.75;1.75;1.00
55304;PMS7003;65692;51.378;19.824;2023-02-01T00:30:44;5.00;4.00;4.00
55304;PMS7003;65692;51.378;19.824;2023-02-01T00:33:11;3.00;2.00;2.00
55304;PMS7003;65692;51.378;19.824;2023-02-01T00:35:37;2.00;2.00;2.00
55304;PMS7003;65692;51.378;19.824;2023-02-01T00:38:04;7.00;4.25;4.00
55304;PMS7003;65692;51.378;19.824;2023-02-01T00:40:30;2.00;2.00;2.00
55304;PMS7003;65692;51.378;19.824;2023-02-01T00:42:56;6.75;4.00;4.00
55304;PMS7003;65692;51.378;19.824;2023-02-01T00:45:23;3.75;2.00;1.25
55304;PMS7003;65692;51.378;19.824;2023-02-01T00:47:50;2.00;2.00;2.00
55304;PMS7003;65692;51.378;19.824;2023-02-01T00:50:16;7.00;3.50;2.00
55304;PMS7003;65692;51.378;19.824;2023-02-01T00:52:43;5.00;2.00;1.50
55304;PMS7003;65692;51.378;19.824;2023-02-01T00:55:09;3.50;1.00;0.75
55304;PMS7003;65692;51.378;19.824;2023-02-01T00:57:36;7.25;4.25;3.50
55304;PMS7003;65692;51.378;19.824;2023-02-01T01:00:02;7.75;4.00;2.00
55304;PMS7003;65692;51.378;19.824;2023-02-01T01:02:29;11.00;7.00;6.00
55304;PMS7003;65692;51.378;19.824;2023-02-01T01:04:56;9.00;5.00;4.00
55304;PMS7003;65692;51.378;19.824;2023-02-01T01:07:22;6.33;5.67;5.00
55304;PMS7003;65692;51.378;19.824;2023-02-01T01:09:48;7.00;5.00;4.00
55304;PMS7003;65692;51.378;19.824;2023-02-01T01:12:15;14.00;9.33;7.00
55304;PMS7003;65692;51.378;19.824;2023-02-01T01:14:41;5.00;5.00;4.00
55304;PMS7003;65692;51.378;19.824;2023-02-01T01:17:08;7.25;5.00;4.50
55304;PMS7003;65692;51.378;19.824;2023-02-01T01:19:34;15.33;7.00;4.00
55304;PMS7003;65692;51.378;19.824;2023-02-01T01:22:01;10.67;8.67;5.00
55304;PMS7003;65692;51.378;19.824;2023-02-01T01:24:27;9.33;7.00;5.00
55304;PMS7003;65692;51.378;19.824;2023-02-01T01:26:53;11.67;9.33;7.00
55304;PMS7003;65692;51.378;19.824;2023-02-01T01:29:20;17.00;16.33;11.67
55304;PMS7003;65692;51.378;19.824;2023-02-01T01:31:46;10.67;8.67;6.33
55304;PMS7003;65692;51.378;19.824;2023-02-01T01:34:13;9.33;8.67;7.33
55304;PMS7003;65692;51.378;19.824;2023-02-01T01:36:39;10.33;5.00;5.00
55304;PMS7003;65692;51.378;19.824;2023-02-01T01:39:06;11.67;8.67;8.00
55304;PMS7003;65692;51.378;19.824;2023-02-01T01:41:33;14.67;11.67;8.00
55304;PMS7003;65692;51.378;19.824;2023-02-01T01:44:01;9.67;9.33;8.00
55304;PMS7003;65692;51.378;19.824;2023-02-01T01:46:28;7.00;5.00;3.50
55304;PMS7003;65692;51.378;19.824;2023-02-01T01:49:06;10.33;8.00;6.33
55304;PMS7003;65692;51.378;19.824;2023-02-01T01:51:36;1.50;1.50;1.25
55304;PMS7003;65692;51.378;19.824;2023-02-01T01:54:06;3.50;1.00;0.50
55304;PMS7003;65692;51.378;19.824;2023-02-01T01:56:34;3.50;1.00;0.75
55304;PMS7003;65692;51.378;19.824;2023-02-01T01:59:02;2.00;2.00;1.25
55304;PMS7003;65692;51.378;19.824;2023-02-01T02:01:28;1.25;0.75;0.50
55304;PMS7003;65692;51.378;19.824;2023-02-01T02:03:55;3.50;1.25;1.00
55304;PMS7003;65692;51.378;19.824;2023-02-01T02:06:32;1.00;0.00;0.00
55304;PMS7003;65692;51.378;19.824;2023-02-01T02:09:00;2.00;1.00;0.25
55304;PMS7003;65692;51.378;19.824;2023-02-01T02:11:26;0.50;0.50;0.00
55304;PMS7003;65692;51.378;19.824;2023-02-01T02:13:53;2.75;1.25;1.00
55304;PMS7003;65692;51.378;19.824;2023-02-01T02:18:57;0.00;0.00;0.00
55304;PMS7003;65692;51.378;19.824;2023-02-01T02:27:18;4.25;1.00;1.00
55304;PMS7003;65692;51.378;19.824;2023-02-01T02:37:46;4.25;1.00;1.00
55304;PMS7003;65692;51.378;19.824;2023-02-01T02:40:25;1.00;1.00;0.75
55304;PMS7003;65692;51.378;19.824;2023-02-01T02:49:05;1.75;1.00;1.00
55304;PMS7003;65692;51.378;19.824;2023-02-01T02:54:28;1.25;1.25;1.00
55304;PMS7003;65692;51.378;19.824;2023-02-01T03:00:11;4.50;4.50;1.00
55304;PMS7003;65692;51.378;19.824;2023-02-01T03:02:56;1.00;1.00;1.00
55304;PMS7003;65692;51.378;19.824;2023-02-01T03:05:43;1.50;1.25;1.00
55304;PMS7003;65692;51.378;19.824;2023-02-01T03:08:11;1.25;1.25;1.00
55304;PMS7003;65692;51.378;19.824;2023-02-01T03:10:41;4.00;4.00;2.00
55304;PMS7003;65692;51.378;19.824;2023-02-01T03:13:10;7.00;5.00;4.33
55304;PMS7003;65692;51.378;19.824;2023-02-01T03:18:13;10.25;7.00;4.00
55304;PMS7003;65692;51.378;19.824;2023-02-01T03:20:46;2.00;2.00;1.00
55304;PMS7003;65692;51.378;19.824;2023-02-01T03:23:16;2.00;2.00;2.00
55304;PMS7003;65692;51.378;19.824;2023-02-01T03:25:44;6.50;1.75;1.00
55304;PMS7003;65692;51.378;19.824;2023-02-01T03:28:13;2.00;1.75;1.00
55304;PMS7003;65692;51.378;19.824;2023-02-01T03:30:42;2.00;2.00;1.00
55304;PMS7003;65692;51.378;19.824;2023-02-01T03:33:10;4.00;1.00;1.00
55304;PMS7003;65692;51.378;19.824;2023-02-01T03:38:32;4.00;2.00;1.00
55304;PMS7003;65692;51.378;19.824;2023-02-01T03:41:19;3.25;1.75;1.25
55304;PMS7003;65692;51.378;19.824;2023-02-01T03:43:50;2.00;1.00;0.75
55304;PMS7003;65692;51.378;19.824;2023-02-01T03:46:20;3.50;1.25;1.00
55304;PMS7003;65692;51.378;19.824;2023-02-01T03:48:49;5.00;4.00;1.75
55304;PMS7003;65692;51.378;19.824;2023-02-01T03:51:17;1.50;1.50;1.00
55304;PMS7003;65692;51.378;19.824;2023-02-01T03:53:46;1.25;1.25;1.00
55304;PMS7003;65692;51.378;19.824;2023-02-01T03:56:15;3.50;2.00;1.75
55304;PMS7003;65692;51.378;19.824;2023-02-01T03:58:44;2.00;2.00;2.00
55304;PMS7003;65692;51.378;19.824;2023-02-01T04:01:25;5.00;4.00;2.00
55304;PMS7003;65692;51.378;19.824;2023-02-01T04:03:53;3.25;2.00;1.50
55304;PMS7003;65692;51.378;19.824;2023-02-01T04:06:19;4.00;1.25;1.25
55304;PMS7003;65692;51.378;19.824;2023-02-01T04:08:46;5.50;4.00;2.50
55304;PMS7003;65692;51.378;19.824;2023-02-01T04:11:13;7.67;1.67;1.00
55304;PMS7003;65692;51.378;19.824;2023-02-01T04:13:39;2.00;2.00;2.00
55304;PMS7003;65692;51.378;19.824;2023-02-01T04:16:06;4.00;1.50;1.00
55304;PMS7003;65692;51.378;19.824;2023-02-01T04:18:32;1.50;1.50;1.50
55304;PMS7003;65692;51.378;19.824;2023-02-01T04:20:59;1.00;1.00;1.00
55304;PMS7003;65692;51.378;19.824;2023-02-01T04:23:25;5.50;3.00;2.00
55304;PMS7003;65692;51.378;19.824;2023-02-01T04:25:52;6.50;4.00;2.00
55304;PMS7003;65692;51.378;19.824;2023-02-01T04:28:18;1.00;1.00;1.00
55304;PMS7003;65692;51.378;19.824;2023-02-01T04:30:45;0.75;0.75;0.75
55304;PMS7003;65692;51.378;19.824;2023-02-01T04:33:12;3.50;1.25;1.00
55304;PMS7003;65692;51.378;19.824;2023-02-01T04:35:40;8.00;2.00;2.00
55304;PMS7003;65692;51.378;19.824;2023-02-01T04:38:06;7.00;2.00;1.75
55304;PMS7003;65692;51.378;19.824;2023-02-01T04:40:33;4.00;2.50;2.50
55304;PMS7003;65692;51.378;19.824;2023-02-01T04:43:02;1.00;1.00;1.00
55304;PMS7003;65692;51.378;19.824;2023-02-01T04:45:29;1.50;0.00;0.00
55304;PMS7003;65692;51.378;19.824;2023-02-01T04:47:56;5.50;2.00;1.25
55304;PMS7003;65692;51.378;19.824;2023-02-01T04:50:22;6.50;3.50;2.00
55304;PMS7003;65692;51.378;19.824;2023-02-01T04:52:50;1.00;1.00;0.75
55304;PMS7003;65692;51.378;19.824;2023-02-01T04:55:16;2.50;2.50;2.00
55304;PMS7003;65692;51.378;19.824;2023-02-01T04:57:43;10.25;4.50;4.00
55304;PMS7003;65692;51.378;19.824;2023-02-01T05:00:09;7.75;7.00;5.00
55304;PMS7003;65692;51.378;19.824;2023-02-01T05:02:36;7.00;4.67;4.00
55304;PMS7003;65692;51.378;19.824;2023-02-01T05:05:03;7.00;4.25;2.00
55304;PMS7003;65692;51.378;19.824;2023-02-01T05:07:29;3.75;3.00;1.50
55304;PMS7003;65692;51.378;19.824;2023-02-01T05:09:55;8.25;4.25;3.50
55304;PMS7003;65692;51.378;19.824;2023-02-01T05:12:22;1.75;1.75;1.50
55304;PMS7003;65692;51.378;19.824;2023-02-01T05:15:07;4.50;3.00;2.50
55304;PMS7003;65692;51.378;19.824;2023-02-01T05:17:33;7.25;4.00;2.50
55304;PMS7003;65692;51.378;19.824;2023-02-01T05:20:00;5.33;3.33;2.00
55304;PMS7003;65692;51.378;19.824;2023-02-01T05:22:26;3.25;0.50;0.00
55304;PMS7003;65692;51.378;19.824;2023-02-01T05:24:53;1.00;1.00;0.75
55304;PMS7003;65692;51.378;19.824;2023-02-01T05:27:19;1.00;1.00;0.75
55304;PMS7003;65692;51.378;19.824;2023-02-01T05:29:46;7.50;4.25;2.00
55304;PMS7003;65692;51.378;19.824;2023-02-01T05:32:12;4.50;2.00;2.00
55304;PMS7003;65692;51.378;19.824;2023-02-01T05:34:47;7.75;2.50;1.50
55304;PMS7003;65692;51.378;19.824;2023-02-01T05:37:14;3.75;2.25;1.25
55304;PMS7003;65692;51.378;19.824;2023-02-01T05:39:40;12.00;6.00;4.25
55304;PMS7003;65692;51.378;19.824;2023-02-01T05:42:07;3.00;0.75;0.75
55304;PMS7003;65692;51.378;19.824;2023-02-01T05:44:33;2.50;1.25;0.75
55304;PMS7003;65692;51.378;19.824;2023-02-01T05:46:59;1.50;1.50;1.50
55304;PMS7003;65692;51.378;19.824;2023-02-01T05:49:26;3.50;3.50;1.75
55304;PMS7003;65692;51.378;19.824;2023-02-01T05:51:52;4.00;1.75;1.50
55304;PMS7003;65692;51.378;19.824;2023-02-01T05:54:18;4.00;1.75;1.25
55304;PMS7003;65692;51.378;19.824;2023-02-01T05:56:45;6.00;4.00;2.00
55304;PMS7003;65692;51.378;19.824;2023-02-01T05:59:11;4.75;1.00;0.75
55304;PMS7003;65692;51.378;19.824;2023-02-01T06:01:38;9.50;2.50;1.50
55304;PMS7003;65692;51.378;19.824;2023-02-01T06:04:04;2.50;0.50;0.00
55304;PMS7003;65692;51.378;19.824;2023-02-01T06:06:30;6.75;1.00;0.75
55304;PMS7003;65692;51.378;19.824;2023-02-01T06:08:57;2.00;2.00;1.75
55304;PMS7003;65692;51.378;19.824;2023-02-01T06:11:23;3.00;1.50;1.00
55304;PMS7003;65692;51.378;19.824;2023-02-01T06:13:58;1.50;0.00;0.00
55304;PMS7003;65692;51.378;19.824;2023-02-01T06:16:24;8.50;1.00;1.00
55304;PMS7003;65692;51.378;19.824;2023-02-01T06:18:51;1.75;1.75;1.50
55304;PMS7003;65692;51.378;19.824;2023-02-01T06:21:17;3.75;2.00;2.00
55304;PMS7003;65692;51.378;19.824;2023-02-01T06:23:50;3.50;1.00;0.00
55304;PMS7003;65692;51.378;19.824;2023-02-01T06:26:16;1.75;0.75;0.75
55304;PMS7003;65692;51.378;19.824;2023-02-01T06:28:44;5.50;1.50;1.50
55304;PMS7003;65692;51.378;19.824;2023-02-01T06:31:10;2.00;1.50;1.25
55304;PMS7003;65692;51.378;19.824;2023-02-01T06:33:38;7.25;2.50;2.00
55304;PMS7003;65692;51.378;19.824;2023-02-01T06:36:05;9.33;7.00;4.00
55304;PMS7003;65692;51.378;19.824;2023-02-01T06:38:33;8.50;7.00;5.00
55304;PMS7003;65692;51.378;19.824;2023-02-01T06:41:00;3.75;2.50;2.00
55304;PMS7003;65692;51.378;19.824;2023-02-01T06:43:28;7.00;7.00;5.00
55304;PMS7003;65692;51.378;19.824;2023-02-01T06:46:01;14.50;7.75;5.50
55304;PMS7003;65692;51.378;19.824;2023-02-01T06:48:28;8.00;7.25;4.50
55304;PMS7003;65692;51.378;19.824;2023-02-01T06:50:54;22.00;15.33;10.67
55304;PMS7003;65692;51.378;19.824;2023-02-01T06:53:21;10.25;7.75;7.00
55304;PMS7003;65692;51.378;19.824;2023-02-01T06:55:51;7.00;4.75;4.00
55304;PMS7003;65692;51.378;19.824;2023-02-01T06:58:18;7.50;5.50;5.00
55304;PMS7003;65692;51.378;19.824;2023-02-01T07:00:44;10.50;7.75;6.50
55304;PMS7003;65692;51.378;19.824;2023-02-01T07:03:11;14.50;8.50;6.00
55304;PMS7003;65692;51.378;19.824;2023-02-01T07:05:37;8.50;1.00;0.00
55304;PMS7003;65692;51.378;19.824;2023-02-01T07:08:03;6.50;4.00;2.00
55304;PMS7003;65692;51.378;19.824;2023-02-01T07:10:30;20.33;15.00;8.67
55304;PMS7003;65692;51.378;19.824;2023-02-01T07:12:57;8.00;7.67;4.33
55304;PMS7003;65692;51.378;19.824;2023-02-01T07:15:23;11.00;9.50;8.00
55304;PMS7003;65692;51.378;19.824;2023-02-01T07:17:50;16.67;11.00;9.00
55304;PMS7003;65692;51.378;19.824;2023-02-01T07:20:17;8.00;7.50;5.50
55304;PMS7003;65692;51.378;19.824;2023-02-01T07:22:43;18.25;8.25;5.25
55304;PMS7003;65692;51.378;19.824;2023-02-01T07:25:10;6.50;4.50;3.00
55304;PMS7003;65692;51.378;19.824;2023-02-01T07:27:36;12.00;6.25;5.00
55304;PMS7003;65692;51.378;19.824;2023-02-01T07:30:06;3.50;1.75;1.50
55304;PMS7003;65692;51.378;19.824;2023-02-01T07:32:32;7.50;5.00;4.00
55304;PMS7003;65692;51.378;19.824;2023-02-01T07:34:59;4.75;4.25;2.00
55304;PMS7003;65692;51.378;19.824;2023-02-01T07:37:25;15.33;11.67;8.00
55304;PMS7003;65692;51.378;19.824;2023-02-01T07:39:52;12.25;8.75;7.25
55304;PMS7003;65692;51.378;19.824;2023-02-01T07:42:18;8.00;5.25;4.50
55304;PMS7003;65692;51.378;19.824;2023-02-01T07:44:44;6.25;4.00;3.00
55304;PMS7003;65692;51.378;19.824;2023-02-01T07:47:11;11.00;8.25;6.25
55304;PMS7003;65692;51.378;19.824;2023-02-01T07:49:37;8.25;7.75;4.75
55304;PMS7003;65692;51.378;19.824;2023-02-01T07:52:04;4.50;4.50;4.00
55304;PMS7003;65692;51.378;19.824;2023-02-01T07:54:30;14.50;7.50;5.00
55304;PMS7003;65692;51.378;19.824;2023-02-01T07:56:57;3.00;1.00;0.50
55304;PMS7003;65692;51.378;19.824;2023-02-01T07:59:23;5.50;5.50;4.25
55304;PMS7003;65692;51.378;19.824;2023-02-01T08:01:50;8.50;6.50;4.50
55304;PMS7003;65692;51.378;19.824;2023-02-01T08:04:16;15.75;9.00;8.00
55304;PMS7003;65692;51.378;19.824;2023-02-01T08:06:42;9.50;8.50;5.50
55304;PMS7003;65692;51.378;19.824;2023-02-01T08:09:09;6.00;4.00;1.75
55304;PMS7003;65692;51.378;19.824;2023-02-01T08:11:37;7.00;5.25;4.00
55304;PMS7003;65692;51.378;19.824;2023-02-01T08:14:04;7.75;5.00;4.00
55304;PMS7003;65692;51.378;19.824;2023-02-01T08:16:31;12.75;6.00;5.00
55304;PMS7003;65692;51.378;19.824;2023-02-01T08:18:57;5.75;5.75;5.00
55304;PMS7003;65692;51.378;19.824;2023-02-01T08:21:27;7.50;5.75;4.75
55304;PMS7003;65692;51.378;19.824;2023-02-01T08:24:03;6.50;4.00;3.00
55304;PMS7003;65692;51.378;19.824;2023-02-01T08:26:30;11.00;5.75;5.00
55304;PMS7003;65692;51.378;19.824;2023-02-01T08:28:57;5.75;4.50;4.00
55304;PMS7003;65692;51.378;19.824;2023-02-01T08:31:24;8.25;4.50;3.50
55304;PMS7003;65692;51.378;19.824;2023-02-01T08:33:52;4.00;2.00;1.50
55304;PMS7003;65692;51.378;19.824;2023-02-01T08:36:19;23.00;17.00;14.33
55304;PMS7003;65692;51.378;19.824;2023-02-01T08:38:46;9.50;6.00;4.00
55304;PMS7003;65692;51.378;19.824;2023-02-01T08:41:13;10.00;5.50;4.50
55304;PMS7003;65692;51.378;19.824;2023-02-01T08:43:40;5.25;5.00;4.00
55304;PMS7003;65692;51.378;19.824;2023-02-01T08:46:07;7.00;7.00;4.00
55304;PMS7003;65692;51.378;19.824;2023-02-01T08:48:34;8.00;5.00;5.00
55304;PMS7003;65692;51.378;19.824;2023-02-01T08:51:02;5.50;5.00;4.00
55304;PMS7003;65692;51.378;19.824;2023-02-01T08:53:29;8.75;6.00;6.00
55304;PMS7003;65692;51.378;19.824;2023-02-01T08:55:55;10.25;6.00;5.25
55304;PMS7003;65692;51.378;19.824;2023-02-01T08:58:22;16.00;8.00;5.00
55304;PMS7003;65692;51.378;19.824;2023-02-01T09:00:48;5.25;4.25;4.25
55304;PMS7003;65692;51.378;19.824;2023-02-01T09:03:15;7.75;4.50;3.50
55304;PMS7003;65692;51.378;19.824;2023-02-01T09:05:42;10.50;4.25;2.50
55304;PMS7003;65692;51.378;19.824;2023-02-01T09:08:15;5.25;5.00;4.00
55304;PMS7003;65692;51.378;19.824;2023-02-01T09:10:41;10.25;7.50;5.00
55304;PMS7003;65692;51.378;19.824;2023-02-01T09:13:08;6.00;6.00;5.00
55304;PMS7003;65692;51.378;19.824;2023-02-01T09:15:36;5.50;4.75;4.00
55304;PMS7003;65692;51.378;19.824;2023-02-01T09:18:03;5.00;5.00;4.00
55304;PMS7003;65692;51.378;19.824;2023-02-01T09:20:29;4.75;4.25;4.00
55304;PMS7003;65692;51.378;19.824;2023-02-01T09:22:56;5.25;5.00;4.25
55304;PMS7003;65692;51.378;19.824;2023-02-01T09:25:22;6.50;6.00;5.00
55304;PMS7003;65692;51.378;19.824;2023-02-01T09:27:49;6.50;5.75;2.00
55304;PMS7003;65692;51.378;19.824;2023-02-01T09:30:15;5.00;5.00;4.00
55304;PMS7003;65692;51.378;19.824;2023-02-01T09:32:42;16.00;8.00;5.00
55304;PMS7003;65692;51.378;19.824;2023-02-01T09:35:08;5.75;5.50;4.75
55304;PMS7003;65692;51.378;19.824;2023-02-01T09:37:35;8.25;7.50;5.25
55304;PMS7003;65692;51.378;19.824;2023-02-01T09:40:03;9.75;6.50;5.50
55304;PMS7003;65692;51.378;19.824;2023-02-01T09:45:10;16.00;13.00;9.75
55304;PMS7003;65692;51.378;19.824;2023-02-01T09:47:43;12.75;8.50;6.00
55304;PMS7003;65692;51.378;19.824;2023-02-01T09:50:18;10.75;9.00;6.25
55304;PMS7003;65692;51.378;19.824;2023-02-01T09:52:54;16.75;13.25;9.00
55304;PMS7003;65692;51.378;19.824;2023-02-01T09:55:26;14.25;9.50;6.50
55304;PMS7003;65692;51.378;19.824;2023-02-01T09:58:03;13.00;7.25;5.25
55304;PMS7003;65692;51.378;19.824;2023-02-01T10:00:35;12.75;8.25;7.00
55304;PMS7003;65692;51.378;19.824;2023-02-01T10:03:03;8.00;3.25;3.00
55304;PMS7003;65692;51.378;19.824;2023-02-01T10:05:40;10.00;6.75;6.50
55304;PMS7003;65692;51.378;19.824;2023-02-01T10:10:56;20.50;14.75;10.75
55304;PMS7003;65692;51.378;19.824;2023-02-01T10:13:34;13.25;9.75;6.00
55304;PMS7003;65692;51.378;19.824;2023-02-01T10:18:55;24.33;21.67;13.67
55304;PMS7003;65692;51.378;19.824;2023-02-01T10:22:00;35.00;22.67;18.67
55304;PMS7003;65692;51.378;19.824;2023-02-01T10:29:41;40.33;34.33;26.00
55304;PMS7003;65692;51.378;19.824;2023-02-01T10:32:12;10.25;8.25;5.75
55304;PMS7003;65692;51.378;19.824;2023-02-01T10:34:39;18.50;14.75;11.25
55304;PMS7003;65692;51.378;19.824;2023-02-01T10:37:22;15.00;11.00;7.25
55304;PMS7003;65692;51.378;19.824;2023-02-01T10:39:49;14.00;10.75;7.25
55304;PMS7003;65692;51.378;19.824;2023-02-01T10:42:20;21.00;13.25;10.50
55304;PMS7003;65692;51.378;19.824;2023-02-01T10:44:48;47.00;38.00;25.67
55304;PMS7003;65692;51.378;19.824;2023-02-01T10:47:15;53.50;42.50;29.50
55304;PMS7003;65692;51.378;19.824;2023-02-01T10:54:52;14.25;12.00;7.25
55304;PMS7003;65692;51.378;19.824;2023-02-01T10:57:21;9.25;9.00;6.75
55304;PMS7003;65692;51.378;19.824;2023-02-01T10:59:49;19.75;13.00;9.25
55304;PMS7003;65692;51.378;19.824;2023-02-01T11:02:26;12.75;10.00;8.50
55304;PMS7003;65692;51.378;19.824;2023-02-01T11:05:05;14.25;10.75;8.75
55304;PMS7003;65692;51.378;19.824;2023-02-01T11:07:35;66.25;52.25;32.50
55304;PMS7003;65692;51.378;19.824;2023-02-01T11:10:03;55.25;44.25;31.00
55304;PMS7003;65692;51.378;19.824;2023-02-01T11:12:34;13.50;11.75;6.75
55304;PMS7003;65692;51.378;19.824;2023-02-01T11:15:15;15.25;13.25;10.00
55304;PMS7003;65692;51.378;19.824;2023-02-01T11:17:45;10.75;10.00;8.75
55304;PMS7003;65692;51.378;19.824;2023-02-01T11:20:13;15.00;11.00;9.00
55304;PMS7003;65692;51.378;19.824;2023-02-01T11:22:54;25.25;19.00;12.50
55304;PMS7003;65692;51.378;19.824;2023-02-01T11:25:22;62.25;44.75;30.00
55304;PMS7003;65692;51.378;19.824;2023-02-01T11:27:53;32.75;22.25;14.00
55304;PMS7003;65692;51.378;19.824;2023-02-01T11:30:55;34.25;26.25;20.00
55304;PMS7003;65692;51.378;19.824;2023-02-01T11:33:16;19.25;14.50;11.75
55304;PMS7003;65692;51.378;19.824;2023-02-01T11:35:44;7.00;7.00;6.00
55304;PMS7003;65692;51.378;19.824;2023-02-01T11:38:22;24.50;20.25;17.00
55304;PMS7003;65692;51.378;19.824;2023-02-01T11:41:12;5.25;2.25;1.00
55304;PMS7003;65692;51.378;19.824;2023-02-01T11:43:50;12.25;8.25;7.00
55304;PMS7003;65692;51.378;19.824;2023-02-01T11:46:17;7.50;5.75;5.00
55304;PMS7003;65692;51.378;19.824;2023-02-01T11:48:48;7.00;6.00;4.50
55304;PMS7003;65692;51.378;19.824;2023-02-01T11:56:33;9.50;7.00;6.00
55304;PMS7003;65692;51.378;19.824;2023-02-01T11:59:11;9.75;8.50;6.00
55304;PMS7003;65692;51.378;19.824;2023-02-01T12:10:01;12.75;7.75;6.50
55304;PMS7003;65692;51.378;19.824;2023-02-01T12:20:23;11.25;5.75;5.25
55304;PMS7003;65692;51.378;19.824;2023-02-01T12:22:55;6.00;6.00;5.00
55304;PMS7003;65692;51.378;19.824;2023-02-01T12:25:33;8.75;8.25;6.00
55304;PMS7003;65692;51.378;19.824;2023-02-01T12:36:19;10.75;6.75;6.00
55304;PMS7003;65692;51.378;19.824;2023-02-01T12:44:17;10.50;7.00;6.00
55304;PMS7003;65692;51.378;19.824;2023-02-01T12:46:46;12.00;8.00;6.25
55304;PMS7003;65692;51.378;19.824;2023-02-01T12:51:46;7.25;6.00;5.00
55304;PMS7003;65692;51.378;19.824;2023-02-01T12:54:19;4.00;2.50;2.25
55304;PMS7003;65692;51.378;19.824;2023-02-01T12:56:54;9.50;8.00;6.50
55304;PMS7003;65692;51.378;19.824;2023-02-01T12:59:24;7.25;6.75;6.00
55304;PMS7003;65692;51.378;19.824;2023-02-01T13:01:54;13.50;10.00;7.50
55304;PMS7003;65692;51.378;19.824;2023-02-01T13:04:26;9.00;9.00;7.00
55304;PMS7003;65692;51.378;19.824;2023-02-01T13:06:58;18.00;16.25;12.25
55304;PMS7003;65692;51.378;19.824;2023-02-01T13:09:49;10.50;7.00;6.25
55304;PMS7003;65692;51.378;19.824;2023-02-01T13:12:32;16.00;12.75;9.75
55304;PMS7003;65692;51.378;19.824;2023-02-01T13:15:17;30.67;28.00;22.33
55304;PMS7003;65692;51.378;19.824;2023-02-01T13:17:46;10.75;10.00;6.25
55304;PMS7003;65692;51.378;19.824;2023-02-01T13:22:43;10.75;9.25;7.50
55304;PMS7003;65692;51.378;19.824;2023-02-01T13:25:13;14.50;10.75;9.25
55304;PMS7003;65692;51.378;19.824;2023-02-01T13:27:40;13.50;8.00;5.75
55304;PMS7003;65692;51.378;19.824;2023-02-01T13:30:13;12.00;10.25;6.25
55304;PMS7003;65692;51.378;19.824;2023-02-01T13:43:33;11.25;9.00;7.00
55304;PMS7003;65692;51.378;19.824;2023-02-01T13:46:04;1.50;0.25;0.00
55304;PMS7003;65692;51.378;19.824;2023-02-01T13:51:04;5.50;3.50;3.00
55304;PMS7003;65692;51.378;19.824;2023-02-01T13:53:31;10.00;6.25;5.00
55304;PMS7003;65692;51.378;19.824;2023-02-01T13:56:00;10.25;7.00;6.00
55304;PMS7003;65692;51.378;19.824;2023-02-01T13:58:37;6.25;6.00;5.25
55304;PMS7003;65692;51.378;19.824;2023-02-01T14:03:53;9.00;5.25;5.00
55304;PMS7003;65692;51.378;19.824;2023-02-01T14:16:42;13.25;9.75;6.00
55304;PMS7003;65692;51.378;19.824;2023-02-01T14:19:25;10.25;10.25;8.50
55304;PMS7003;65692;51.378;19.824;2023-02-01T14:24:29;13.00;9.00;8.50
55304;PMS7003;65692;51.378;19.824;2023-02-01T14:26:56;13.00;11.25;8.00
55304;PMS7003;65692;51.378;19.824;2023-02-01T14:32:04;13.25;12.00;9.75
55304;PMS7003;65692;51.378;19.824;2023-02-01T14:44:52;9.25;8.00;6.00
55304;PMS7003;65692;51.378;19.824;2023-02-01T14:47:26;10.25;8.50;7.25
55304;PMS7003;65692;51.378;19.824;2023-02-01T14:52:20;12.50;9.75;8.25
55304;PMS7003;65692;51.378;19.824;2023-02-01T14:54:49;13.75;10.25;9.25
55304;PMS7003;65692;51.378;19.824;2023-02-01T14:57:18;13.00;9.75;8.75
55304;PMS7003;65692;51.378;19.824;2023-02-01T14:59:46;13.25;10.75;8.75
55304;PMS7003;65692;51.378;19.824;2023-02-01T15:02:17;9.00;8.00;5.75
55304;PMS7003;65692;51.378;19.824;2023-02-01T15:04:45;16.25;9.00;8.25
55304;PMS7003;65692;51.378;19.824;2023-02-01T15:07:12;11.50;10.00;7.75
55304;PMS7003;65692;51.378;19.824;2023-02-01T15:09:43;15.50;11.00;9.00
55304;PMS7003;65692;51.378;19.824;2023-02-01T15:14:38;12.75;11.75;7.75
55304;PMS7003;65692;51.378;19.824;2023-02-01T15:20:00;12.25;11.75;9.00
55304;PMS7003;65692;51.378;19.824;2023-02-01T15:22:30;13.25;9.00;7.00
55304;PMS7003;65692;51.378;19.824;2023-02-01T15:24:58;24.25;15.50;11.75
55304;PMS7003;65692;51.378;19.824;2023-02-01T15:27:25;7.00;7.00;5.75
55304;PMS7003;65692;51.378;19.824;2023-02-01T15:29:52;18.67;14.33;12.00
55304;PMS7003;65692;51.378;19.824;2023-02-01T15:32:31;30.67;28.00;19.00
55304;PMS7003;65692;51.378;19.824;2023-02-01T15:35:33;41.33;32.00;21.67
55304;PMS7003;65692;51.378;19.824;2023-02-01T15:41:29;29.33;21.00;13.00
55304;PMS7003;65692;51.378;19.824;2023-02-01T15:49:02;34.67;28.67;21.33
55304;PMS7003;65692;51.378;19.824;2023-02-01T15:51:30;31.00;24.67;16.67
55304;PMS7003;65692;51.378;19.824;2023-02-01T15:54:02;13.25;11.25;9.00
55304;PMS7003;65692;51.378;19.824;2023-02-01T15:56:35;27.67;23.33;17.00
55304;PMS7003;65692;51.378;19.824;2023-02-01T15:59:02;16.50;16.00;13.00
55304;PMS7003;65692;51.378;19.824;2023-02-01T16:01:30;18.50;14.75;12.00
55304;PMS7003;65692;51.378;19.824;2023-02-01T16:04:12;29.67;24.67;17.67
55304;PMS7003;65692;51.378;19.824;2023-02-01T16:06:51;19.50;18.25;12.75
55304;PMS7003;65692;51.378;19.824;2023-02-01T16:09:20;23.67;19.00;14.33
55304;PMS7003;65692;51.378;19.824;2023-02-01T16:14:19;31.33;29.00;21.00
55304;PMS7003;65692;51.378;19.824;2023-02-01T16:16:46;24.00;19.33;15.00
55304;PMS7003;65692;51.378;19.824;2023-02-01T16:19:12;20.00;17.33;12.00
55304;PMS7003;65692;51.378;19.824;2023-02-01T16:21:39;32.33;24.33;16.33
55304;PMS7003;65692;51.378;19.824;2023-02-01T16:24:05;29.67;22.67;15.33
55304;PMS7003;65692;51.378;19.824;2023-02-01T16:26:32;26.67;23.00;19.00
55304;PMS7003;65692;51.378;19.824;2023-02-01T16:28:59;39.50;30.00;21.00
55304;PMS7003;65692;51.378;19.824;2023-02-01T16:31:29;35.00;23.00;15.75
55304;PMS7003;65692;51.378;19.824;2023-02-01T16:33:56;21.75;19.25;11.50
55304;PMS7003;65692;51.378;19.824;2023-02-01T16:36:24;29.00;20.33;13.67
55304;PMS7003;65692;51.378;19.824;2023-02-01T16:38:54;30.00;25.33;17.67
55304;PMS7003;65692;51.378;19.824;2023-02-01T16:41:21;22.33;12.67;9.00
55304;PMS7003;65692;51.378;19.824;2023-02-01T16:43:52;50.00;39.75;22.50
55304;PMS7003;65692;51.378;19.824;2023-02-01T16:46:20;46.25;37.50;27.50